RJDB(METAR)
02/20 18:00
RJDB 200900Z 27003KT 9999 SCT030 08/02 Q1022 RMK A3020=
戻る
トップページへ戻る
IMOC Co,.Ltd.